Time;durP1;ratioP1;P1;durP2;ratioP2;P2;SDS_P1;SDS_P2;PMS_P1;PMS_P2;Temp;Humidity;BMP_temperature;BMP_pressure;BME280_temperature;BME280_humidity;BME280_pressure;Samples;Min_cycle;Max_cycle;Signal;HPM_P1;HPM_P2
2022/03/26 00:00:25;;;;;;;190.35;89.05;;;;;;;;;;5100082;28;20131;-60
2022/03/26 00:02:51;;;;;;;190.40;89.70;;;;;;;;;;5098778;28;21187;-60
2022/03/26 00:05:19;;;;;;;189.05;90.82;;;;;;;;;;5103223;28;20055;-60
2022/03/26 00:07:45;;;;;;;;;;;;;;;;;;5104996;28;20066;-60
2022/03/26 00:10:11;;;;;;;176.45;87.45;;;;;;;;;;5100388;28;19920;-61
2022/03/26 00:12:39;;;;;;;188.40;88.78;;;;;;;;;;5096179;28;20049;-61
2022/03/26 00:15:05;;;;;;;197.52;90.93;;;;;;;;;;5097812;28;20044;-61
2022/03/26 00:17:32;;;;;;;198.70;92.75;;;;;;;;;;5093914;28;20047;-61
2022/03/26 00:19:58;;;;;;;199.50;91.63;;;;;;;;;;5101524;28;20048;-61
2022/03/26 00:22:24;;;;;;;205.27;95.65;;;;;;;;;;5084667;28;20100;-61
2022/03/26 00:24:50;;;;;;;203.70;92.55;;;;;;;;;;5100355;28;20059;-60
2022/03/26 00:27:17;;;;;;;205.70;94.57;;;;;;;;;;5105185;28;20039;-60
2022/03/26 00:29:44;;;;;;;210.13;94.28;;;;;;;;;;5105789;28;20044;-60
2022/03/26 00:32:10;;;;;;;209.47;91.97;;;;;;;;;;5105263;28;20096;-60
2022/03/26 00:34:37;;;;;;;210.75;95.70;;;;;;;;;;5087864;28;20416;-61
2022/03/26 00:37:03;;;;;;;218.40;97.35;;;;;;;;;;5084959;28;20108;-60
2022/03/26 00:39:29;;;;;;;217.68;101.68;;;;;;;;;;5085569;28;20090;-60
2022/03/26 00:41:55;;;;;;;224.18;99.68;;;;;;;;;;5085457;28;20119;-60
2022/03/26 00:44:22;;;;;;;229.63;100.30;;;;;;;;;;5099829;28;20570;-59
2022/03/26 00:46:49;;;;;;;223.65;104.45;;;;;;;;;;5105825;28;20044;-60
2022/03/26 00:49:15;;;;;;;236.60;105.82;;;;;;;;;;5105457;28;20052;-60
2022/03/26 00:51:41;;;;;;;234.75;104.72;;;;;;;;;;5103653;28;20050;-60
2022/03/26 00:54:12;;;;;;;230.80;103.90;;;;;;;;;;5090006;28;20048;-60
2022/03/26 00:56:39;;;;;;;240.48;104.82;;;;;;;;;;5084942;28;20056;-60
2022/03/26 00:59:05;;;;;;;228.80;104.30;;;;;;;;;;5085114;28;20116;-59
2022/03/26 01:01:32;;;;;;;247.53;108.87;;;;;;;;;;5084762;28;20036;-60
2022/03/26 01:03:58;;;;;;;245.55;108.03;;;;;;;;;;5097833;28;20055;-59
2022/03/26 01:06:25;;;;;;;243.43;105.72;;;;;;;;;;5104596;28;20055;-60
2022/03/26 01:08:51;;;;;;;242.23;105.95;;;;;;;;;;5105318;28;20054;-60
2022/03/26 01:11:17;;;;;;;241.25;104.43;;;;;;;;;;5105097;28;20040;-60
2022/03/26 01:13:44;;;;;;;255.60;105.60;;;;;;;;;;5092202;28;20101;-60
2022/03/26 01:16:12;;;;;;;243.02;107.53;;;;;;;;;;5084610;28;20049;-60
2022/03/26 01:18:39;;;;;;;232.20;103.70;;;;;;;;;;5084824;28;20119;-60
2022/03/26 01:21:05;;;;;;;240.80;105.82;;;;;;;;;;5084020;28;20048;-60
2022/03/26 01:23:31;;;;;;;235.57;102.93;;;;;;;;;;5095116;28;20048;-60
2022/03/26 01:25:58;;;;;;;227.15;102.57;;;;;;;;;;5104773;28;20467;-60
2022/03/26 01:28:24;;;;;;;249.10;104.90;;;;;;;;;;5105154;28;20470;-60
2022/03/26 01:30:50;;;;;;;250.75;106.03;;;;;;;;;;5101935;28;20108;-60
2022/03/26 01:33:17;;;;;;;258.02;107.60;;;;;;;;;;5084343;28;20040;-60
2022/03/26 01:35:43;;;;;;;256.67;111.47;;;;;;;;;;5084472;28;20068;-59
2022/03/26 01:38:09;;;;;;;253.75;107.07;;;;;;;;;;5082553;28;20048;-60
2022/03/26 01:40:36;;;;;;;243.68;107.13;;;;;;;;;;5084271;28;20045;-60
2022/03/26 01:43:02;;;;;;;237.88;104.18;;;;;;;;;;5104547;28;20113;-60
2022/03/26 01:45:29;;;;;;;220.95;101.05;;;;;;;;;;5104289;28;20044;-59
2022/03/26 01:47:55;;;;;;;235.75;105.15;;;;;;;;;;5104487;28;20047;-60
2022/03/26 01:50:22;;;;;;;242.13;105.72;;;;;;;;;;5092500;28;20511;-61
2022/03/26 01:52:48;;;;;;;244.40;103.95;;;;;;;;;;5083532;28;20048;-60
2022/03/26 01:55:14;;;;;;;239.20;101.82;;;;;;;;;;5082885;28;20476;-61
2022/03/26 01:57:41;;;;;;;246.13;106.60;;;;;;;;;;5084400;28;20049;-60
2022/03/26 02:00:08;;;;;;;241.57;107.87;;;;;;;;;;5093028;28;20286;-61
2022/03/26 02:02:34;;;;;;;254.45;106.65;;;;;;;;;;5100167;28;20056;-59
2022/03/26 02:05:01;;;;;;;248.35;106.28;;;;;;;;;;5083518;28;20060;-60
2022/03/26 02:07:27;;;;;;;230.13;102.03;;;;;;;;;;5083527;28;20049;-60
2022/03/26 02:09:53;;;;;;;240.13;102.53;;;;;;;;;;5091183;28;20040;-60
2022/03/26 02:12:23;;;;;;;248.13;105.20;;;;;;;;;;5104366;28;20044;-60
2022/03/26 02:14:49;;;;;;;245.57;102.32;;;;;;;;;;5103760;28;20040;-60
2022/03/26 02:17:17;;;;;;;253.00;103.35;;;;;;;;;;5102407;28;20157;-61
2022/03/26 02:20:04;;;;;;;246.32;103.10;;;;;;;;;;5104393;28;20054;-60
2022/03/26 02:22:30;;;;;;;267.50;106.90;;;;;;;;;;5103346;28;20047;-61
2022/03/26 02:24:56;;;;;;;288.02;110.13;;;;;;;;;;5104305;28;20108;-59
2022/03/26 02:27:23;;;;;;;271.02;113.00;;;;;;;;;;5095061;28;20044;-59
2022/03/26 02:29:50;;;;;;;270.45;109.80;;;;;;;;;;5083557;28;20047;-61
2022/03/26 02:32:18;;;;;;;250.87;108.53;;;;;;;;;;5083734;28;20100;-60
2022/03/26 02:34:44;;;;;;;225.35;101.90;;;;;;;;;;5083742;28;20060;-61
2022/03/26 02:37:10;;;;;;;245.77;107.05;;;;;;;;;;5084266;28;20096;-60
2022/03/26 02:39:36;;;;;;;251.45;104.45;;;;;;;;;;5082436;28;20127;-60
2022/03/26 02:42:03;;;;;;;238.48;105.32;;;;;;;;;;5083869;28;20100;-60
2022/03/26 02:44:29;;;;;;;240.75;106.10;;;;;;;;;;5096821;28;20048;-60
2022/03/26 02:46:55;;;;;;;257.85;110.78;;;;;;;;;;5098924;28;20056;-60
2022/03/26 02:49:21;;;;;;;273.80;113.78;;;;;;;;;;5084704;28;20052;-60
2022/03/26 02:51:47;;;;;;;279.30;110.30;;;;;;;;;;5083285;28;20120;-60
2022/03/26 02:54:19;;;;;;;282.20;115.78;;;;;;;;;;5083772;28;20073;-60
2022/03/26 02:56:48;;;;;;;269.48;112.80;;;;;;;;;;5090220;28;20036;-60
2022/03/26 02:59:15;;;;;;;250.95;107.18;;;;;;;;;;5107797;28;20074;-60
2022/03/26 03:01:41;;;;;;;254.43;103.97;;;;;;;;;;5106909;28;20125;-60
2022/03/26 03:04:09;;;;;;;254.65;111.07;;;;;;;;;;5107794;28;20055;-60
2022/03/26 03:06:35;;;;;;;241.15;105.55;;;;;;;;;;5105779;28;20036;-60
2022/03/26 03:09:04;;;;;;;246.13;107.30;;;;;;;;;;5087471;28;20105;-60
2022/03/26 03:11:31;;;;;;;243.68;106.20;;;;;;;;;;5087041;28;20112;-61
2022/03/26 03:13:57;;;;;;;269.63;108.25;;;;;;;;;;5086875;28;20079;-60
2022/03/26 03:16:23;;;;;;;249.10;105.10;;;;;;;;;;5099575;28;20093;-60
2022/03/26 03:18:50;;;;;;;251.00;103.70;;;;;;;;;;5107595;28;20048;-61
2022/03/26 03:21:16;;;;;;;255.48;105.15;;;;;;;;;;5106675;28;20044;-60
2022/03/26 03:23:42;;;;;;;260.88;110.07;;;;;;;;;;5107406;28;20044;-60
2022/03/26 03:26:08;;;;;;;269.65;109.03;;;;;;;;;;5096071;28;20053;-60
2022/03/26 03:28:34;;;;;;;271.05;111.53;;;;;;;;;;5087081;28;20392;-60
2022/03/26 03:31:01;;;;;;;284.25;113.88;;;;;;;;;;5086588;28;20036;-60
2022/03/26 03:33:27;;;;;;;313.90;119.78;;;;;;;;;;5089682;28;20044;-60
2022/03/26 03:35:53;;;;;;;302.60;117.18;;;;;;;;;;5098032;28;20040;-60
2022/03/26 03:38:19;;;;;;;306.52;118.00;;;;;;;;;;5087023;28;20041;-60
2022/03/26 03:40:46;;;;;;;330.80;123.97;;;;;;;;;;5086732;28;20429;-60
2022/03/26 03:43:12;;;;;;;328.10;122.30;;;;;;;;;;5086790;28;20048;-61
2022/03/26 03:45:38;;;;;;;294.83;117.45;;;;;;;;;;5091865;28;20044;-60
2022/03/26 03:48:04;;;;;;;316.15;121.63;;;;;;;;;;5106766;28;20082;-60
2022/03/26 03:50:30;;;;;;;337.30;125.70;;;;;;;;;;5106782;28;20476;-60
2022/03/26 03:52:56;;;;;;;332.35;121.40;;;;;;;;;;5106543;28;20048;-60
2022/03/26 03:55:23;;;;;;;327.40;115.28;;;;;;;;;;5102888;28;20238;-60
2022/03/26 03:57:49;;;;;;;334.38;119.03;;;;;;;;;;5086315;28;20076;-59
2022/03/26 04:00:16;;;;;;;329.95;118.53;;;;;;;;;;5086010;28;20048;-59
2022/03/26 04:02:43;;;;;;;343.40;119.60;;;;;;;;;;5086048;28;20445;-60
2022/03/26 04:05:09;;;;;;;334.05;119.50;;;;;;;;;;5087614;28;20049;-60
2022/03/26 04:07:39;;;;;;;346.27;121.28;;;;;;;;;;5104566;28;20067;-60
2022/03/26 04:10:07;;;;;;;345.70;123.65;;;;;;;;;;5106338;28;20400;-60
2022/03/26 04:12:34;;;;;;;364.15;122.80;;;;;;;;;;5106233;28;20043;-60
2022/03/26 04:15:00;;;;;;;360.17;124.78;;;;;;;;;;5105825;28;20413;-60
2022/03/26 04:17:26;;;;;;;322.17;118.72;;;;;;;;;;5086091;28;20076;-60
2022/03/26 04:19:53;;;;;;;311.88;118.97;;;;;;;;;;5095614;28;20039;-60
2022/03/26 04:22:19;;;;;;;276.13;111.43;;;;;;;;;;5105524;28;20047;-60
2022/03/26 04:24:45;;;;;;;289.85;112.47;;;;;;;;;;5105920;28;20438;-60
2022/03/26 04:27:11;;;;;;;289.67;114.55;;;;;;;;;;5105571;28;20074;-60
2022/03/26 04:29:37;;;;;;;276.75;113.38;;;;;;;;;;5099176;28;20052;-59
2022/03/26 04:32:04;;;;;;;288.85;115.95;;;;;;;;;;5085491;28;20053;-59
2022/03/26 04:34:31;;;;;;;286.20;110.63;;;;;;;;;;5085857;28;20044;-60
2022/03/26 04:36:57;;;;;;;275.73;109.95;;;;;;;;;;5085052;28;20037;-60
2022/03/26 04:39:23;;;;;;;298.20;113.72;;;;;;;;;;5089481;28;20492;-60
2022/03/26 04:41:49;;;;;;;306.52;113.97;;;;;;;;;;5105770;28;20047;-60
2022/03/26 04:44:16;;;;;;;299.92;114.60;;;;;;;;;;5105707;28;20047;-60
2022/03/26 04:46:42;;;;;;;293.02;111.35;;;;;;;;;;5105370;28;20099;-60
2022/03/26 04:49:08;;;;;;;289.25;111.75;;;;;;;;;;5103840;28;20082;-60
2022/03/26 04:51:34;;;;;;;282.50;111.22;;;;;;;;;;5084477;28;20056;-60
2022/03/26 04:54:00;;;;;;;291.77;112.18;;;;;;;;;;5085271;28;20108;-59
2022/03/26 04:56:26;;;;;;;288.25;109.68;;;;;;;;;;5085088;28;20041;-60
2022/03/26 04:58:55;;;;;;;300.13;114.25;;;;;;;;;;5085440;28;20072;-60
2022/03/26 05:01:22;;;;;;;288.90;116.85;;;;;;;;;;5104999;28;20051;-60
2022/03/26 05:03:48;;;;;;;263.73;105.20;;;;;;;;;;5105247;28;20064;-60
2022/03/26 05:06:14;;;;;;;257.92;106.10;;;;;;;;;;5104649;28;20048;-60
2022/03/26 05:08:41;;;;;;;246.48;102.45;;;;;;;;;;5105296;28;20059;-60
2022/03/26 05:11:07;;;;;;;255.98;105.90;;;;;;;;;;5103152;28;20044;-60
2022/03/26 05:13:33;;;;;;;237.68;101.90;;;;;;;;;;5105024;28;20036;-59
2022/03/26 05:15:59;;;;;;;227.98;97.43;;;;;;;;;;5105060;28;20051;-60
2022/03/26 05:18:25;;;;;;;214.02;96.30;;;;;;;;;;5104660;28;20036;-59
2022/03/26 05:20:51;;;;;;;223.25;96.95;;;;;;;;;;5088455;28;20076;-59
2022/03/26 05:23:17;;;;;;;215.65;92.28;;;;;;;;;;5084418;28;20056;-59
2022/03/26 05:25:43;;;;;;;217.88;96.78;;;;;;;;;;5084629;28;20074;-60
2022/03/26 05:28:10;;;;;;;205.13;90.28;;;;;;;;;;5084674;28;20044;-60
2022/03/26 05:30:36;;;;;;;212.68;92.78;;;;;;;;;;5097594;28;20085;-60
2022/03/26 05:33:02;;;;;;;210.68;91.40;;;;;;;;;;5104599;28;20564;-60
2022/03/26 05:35:28;;;;;;;201.27;92.60;;;;;;;;;;5101831;28;20153;-61
2022/03/26 05:37:54;;;;;;;204.23;91.55;;;;;;;;;;5083913;28;20051;-60
2022/03/26 05:40:22;;;;;;;188.07;87.63;;;;;;;;;;5084437;28;20055;-60
2022/03/26 05:42:49;;;;;;;185.27;85.45;;;;;;;;;;5084163;28;20051;-59
2022/03/26 05:45:16;;;;;;;198.10;90.57;;;;;;;;;;5084958;28;20165;-60
2022/03/26 05:47:42;;;;;;;192.32;82.72;;;;;;;;;;5104446;28;20032;-60
2022/03/26 05:50:09;;;;;;;169.00;81.53;;;;;;;;;;5104470;28;20066;-59
2022/03/26 05:52:35;;;;;;;176.48;82.10;;;;;;;;;;5103739;28;20134;-60
2022/03/26 05:55:02;;;;;;;180.95;84.53;;;;;;;;;;5104387;28;20103;-59
2022/03/26 05:57:28;;;;;;;175.27;82.15;;;;;;;;;;5085154;28;20405;-60
2022/03/26 05:59:54;;;;;;;178.73;82.85;;;;;;;;;;5082973;28;20127;-61
2022/03/26 06:02:21;;;;;;;166.90;79.25;;;;;;;;;;5083820;28;20056;-60
2022/03/26 06:04:47;;;;;;;182.50;84.13;;;;;;;;;;5093410;28;20055;-60
2022/03/26 06:07:14;;;;;;;170.82;80.90;;;;;;;;;;5086794;28;20044;-60
2022/03/26 06:09:40;;;;;;;172.67;81.17;;;;;;;;;;5084145;28;20048;-60
2022/03/26 06:12:07;;;;;;;168.50;79.00;;;;;;;;;;5084322;28;20055;-59
2022/03/26 06:14:34;;;;;;;182.00;82.82;;;;;;;;;;5083780;28;20044;-60
2022/03/26 06:17:00;;;;;;;166.38;78.95;;;;;;;;;;5089454;28;20147;-60
2022/03/26 06:19:27;;;;;;;167.50;80.28;;;;;;;;;;5104179;28;20100;-60
2022/03/26 06:21:53;;;;;;;170.27;80.85;;;;;;;;;;5101767;28;20052;-60
2022/03/26 06:24:20;;;;;;;171.35;79.15;;;;;;;;;;5104112;28;20036;-60
2022/03/26 06:26:48;;;;;;;174.10;84.63;;;;;;;;;;5104303;28;20102;-60
2022/03/26 06:29:14;;;;;;;157.32;78.18;;;;;;;;;;5104099;28;20052;-60
2022/03/26 06:31:40;;;;;;;169.32;79.25;;;;;;;;;;5103527;28;20040;-60
2022/03/26 06:34:06;;;;;;;167.85;80.80;;;;;;;;;;5101981;28;20093;-60
2022/03/26 06:36:34;;;;;;;162.48;78.20;;;;;;;;;;5107724;28;20048;-60
2022/03/26 06:39:00;;;;;;;156.45;76.90;;;;;;;;;;5108288;28;20079;-60
2022/03/26 06:41:26;;;;;;;160.63;74.88;;;;;;;;;;5098853;28;20037;-60
2022/03/26 06:43:53;;;;;;;165.77;76.03;;;;;;;;;;5086693;28;20052;-60
2022/03/26 06:46:19;;;;;;;157.93;72.03;;;;;;;;;;5087589;28;20047;-60
2022/03/26 06:48:45;;;;;;;146.65;72.93;;;;;;;;;;5087720;28;20040;-60
2022/03/26 06:51:13;;;;;;;151.95;75.38;;;;;;;;;;5093755;28;20669;-60
2022/03/26 06:53:39;;;;;;;161.50;75.85;;;;;;;;;;5107781;28;20048;-60
2022/03/26 06:56:08;;;;;;;154.60;71.38;;;;;;;;;;5107840;28;20044;-60
2022/03/26 06:58:34;;;;;;;167.57;76.07;;;;;;;;;;5107681;28;20051;-60
2022/03/26 07:01:01;;;;;;;147.88;71.03;;;;;;;;;;5091730;28;20044;-60
2022/03/26 07:03:27;;;;;;;135.88;68.80;;;;;;;;;;5096578;28;20054;-60
2022/03/26 07:05:54;;;;;;;149.52;71.57;;;;;;;;;;5109971;28;20043;-60
2022/03/26 07:08:20;;;;;;;140.48;69.63;;;;;;;;;;5107805;28;20080;-60
2022/03/26 07:10:46;;;;;;;138.32;67.97;;;;;;;;;;5106913;28;20055;-61
2022/03/26 07:13:16;;;;;;;135.38;67.88;;;;;;;;;;5092068;28;20036;-60
2022/03/26 07:15:43;;;;;;;145.27;69.43;;;;;;;;;;5101685;28;20119;-60
2022/03/26 07:18:09;;;;;;;136.05;66.28;;;;;;;;;;5099560;28;20039;-60
2022/03/26 07:20:35;;;;;;;150.90;71.50;;;;;;;;;;5107455;28;20100;-60
2022/03/26 07:23:02;;;;;;;130.85;66.55;;;;;;;;;;5103865;28;20096;-60
2022/03/26 07:25:29;;;;;;;123.32;63.60;;;;;;;;;;5106656;28;20066;-61
2022/03/26 07:27:55;;;;;;;119.95;59.72;;;;;;;;;;5104183;28;20108;-60
2022/03/26 07:30:22;;;;;;;117.00;63.72;;;;;;;;;;5095603;28;20082;-61
2022/03/26 07:32:48;;;;;;;116.63;60.80;;;;;;;;;;5102231;28;20058;-60
2022/03/26 07:35:14;;;;;;;110.10;60.00;;;;;;;;;;5088200;28;20095;-60
2022/03/26 07:37:41;;;;;;;113.88;60.47;;;;;;;;;;5093380;28;20431;-60
2022/03/26 07:40:07;;;;;;;103.50;57.70;;;;;;;;;;5089870;28;20059;-60
2022/03/26 07:42:34;;;;;;;112.45;58.95;;;;;;;;;;5094973;28;20032;-61
2022/03/26 07:45:00;;;;;;;103.88;53.67;;;;;;;;;;5097959;28;20052;-60
2022/03/26 07:47:26;;;;;;;103.72;54.03;;;;;;;;;;5103111;28;20059;-61
2022/03/26 07:49:52;;;;;;;115.35;58.67;;;;;;;;;;5095912;28;20055;-60
2022/03/26 07:52:18;;;;;;;99.50;53.67;;;;;;;;;;5087852;28;20047;-60
2022/03/26 07:54:44;;;;;;;108.70;56.40;;;;;;;;;;5097238;28;20104;-61
2022/03/26 07:57:10;;;;;;;105.47;54.85;;;;;;;;;;5102892;28;20040;-60
2022/03/26 07:59:37;;;;;;;103.25;57.65;;;;;;;;;;5106675;28;20040;-61
2022/03/26 08:02:03;;;;;;;93.13;52.78;;;;;;;;;;5105926;28;20121;-60
2022/03/26 08:04:29;;;;;;;91.68;54.47;;;;;;;;;;5106456;28;20051;-62
2022/03/26 08:06:55;;;;;;;98.70;55.00;;;;;;;;;;5092866;28;20041;-64
2022/03/26 08:09:21;;;;;;;96.68;54.70;;;;;;;;;;5086313;28;20425;-60
2022/03/26 08:11:48;;;;;;;94.90;53.75;;;;;;;;;;5086773;28;20059;-61
2022/03/26 08:14:14;;;;;;;98.10;52.45;;;;;;;;;;5104830;28;20055;-60
2022/03/26 08:16:40;;;;;;;90.68;50.70;;;;;;;;;;5105537;28;20095;-60
2022/03/26 08:19:07;;;;;;;99.55;52.88;;;;;;;;;;5106170;28;20067;-61
2022/03/26 08:21:35;;;;;;;95.10;51.22;;;;;;;;;;5100390;28;20400;-59
2022/03/26 08:24:02;;;;;;;89.88;49.75;;;;;;;;;;5086194;28;20041;-60
2022/03/26 08:26:29;;;;;;;91.85;50.10;;;;;;;;;;5085728;28;20066;-60
2022/03/26 08:28:57;;;;;;;83.28;49.08;;;;;;;;;;5085726;28;20056;-61
2022/03/26 08:31:23;;;;;;;;;;;;;;;;;;5105257;28;20036;-61
2022/03/26 08:33:49;;;;;;;84.25;49.10;;;;;;;;;;5105665;28;20010;-61
2022/03/26 08:36:16;;;;;;;83.18;47.30;;;;;;;;;;5105147;28;20040;-60
2022/03/26 08:38:46;;;;;;;90.80;45.20;;;;;;;;;;5105980;28;20048;-60
2022/03/26 08:41:13;;;;;;;74.25;44.65;;;;;;;;;;5087554;28;20104;-61
2022/03/26 08:43:39;;;;;;;75.85;46.72;;;;;;;;;;5085098;28;20048;-60
2022/03/26 08:46:05;;;;;;;75.18;45.15;;;;;;;;;;5085029;28;20036;-60
2022/03/26 08:48:31;;;;;;;79.78;45.40;;;;;;;;;;5085485;28;20072;-60
2022/03/26 08:50:58;;;;;;;74.10;45.38;;;;;;;;;;5085950;28;20056;-62
2022/03/26 08:53:24;;;;;;;71.68;43.17;;;;;;;;;;5084411;28;20134;-62
2022/03/26 08:55:53;;;;;;;67.65;40.78;;;;;;;;;;5084854;28;20044;-63
2022/03/26 08:58:19;;;;;;;65.13;40.17;;;;;;;;;;5085034;28;20056;-61
2022/03/26 09:00:47;;;;;;;72.53;41.42;;;;;;;;;;5097587;28;20071;-61
2022/03/26 09:03:13;;;;;;;;;;;;;;;;;;5105553;28;20063;-60
2022/03/26 09:05:39;;;;;;;58.17;36.08;;;;;;;;;;5105443;28;20014;-60
2022/03/26 09:08:05;;;;;;;57.45;36.92;;;;;;;;;;5104393;28;20048;-60
2022/03/26 09:10:32;;;;;;;59.50;36.22;;;;;;;;;;5092427;28;20412;-61
2022/03/26 09:12:58;;;;;;;65.57;37.15;;;;;;;;;;5084580;28;20086;-61
2022/03/26 09:15:24;;;;;;;53.17;33.55;;;;;;;;;;5084328;28;20072;-61
2022/03/26 09:17:51;;;;;;;52.10;34.30;;;;;;;;;;5084456;28;20520;-62
2022/03/26 09:20:17;;;;;;;45.42;28.25;;;;;;;;;;5093244;28;20068;-62
2022/03/26 09:22:43;;;;;;;42.85;27.23;;;;;;;;;;5104089;28;20088;-61
2022/03/26 09:25:10;;;;;;;45.13;27.20;;;;;;;;;;5104818;28;20519;-61
2022/03/26 09:27:36;;;;;;;40.50;25.98;;;;;;;;;;5104546;28;20040;-62
2022/03/26 09:30:03;;;;;;;36.50;22.70;;;;;;;;;;5095566;28;20040;-62
2022/03/26 09:32:29;;;;;;;52.15;28.38;;;;;;;;;;5084261;28;20055;-61
2022/03/26 09:34:55;;;;;;;41.95;25.73;;;;;;;;;;5084706;28;20492;-62
2022/03/26 09:37:21;;;;;;;26.13;18.48;;;;;;;;;;5083877;28;20094;-61
2022/03/26 09:39:48;;;;;;;30.13;18.13;;;;;;;;;;5090335;28;20056;-62
2022/03/26 09:42:14;;;;;;;31.98;20.17;;;;;;;;;;5104369;28;20297;-62
2022/03/26 09:44:40;;;;;;;33.33;21.25;;;;;;;;;;5104679;28;20048;-62
2022/03/26 09:47:07;;;;;;;31.30;20.10;;;;;;;;;;5104089;28;20044;-61
2022/03/26 09:49:33;;;;;;;25.25;16.95;;;;;;;;;;5101963;28;20047;-61
2022/03/26 09:52:00;;;;;;;31.08;18.25;;;;;;;;;;5101337;28;20068;-61
2022/03/26 09:54:26;;;;;;;27.13;18.10;;;;;;;;;;5104369;28;20082;-61
2022/03/26 09:56:53;;;;;;;23.77;14.03;;;;;;;;;;5104247;28;20104;-61
2022/03/26 09:59:22;;;;;;;20.55;13.13;;;;;;;;;;5099918;28;20868;-61
2022/03/26 10:01:49;;;;;;;22.48;12.95;;;;;;;;;;5083533;28;20516;-62
2022/03/26 10:04:19;;;;;;;20.80;13.23;;;;;;;;;;5084264;28;20116;-61
2022/03/26 10:06:56;;;;;;;17.10;11.18;;;;;;;;;;5083353;28;20066;-62
2022/03/26 10:09:26;;;;;;;23.15;12.18;;;;;;;;;;5087444;28;20123;-61
2022/03/26 10:12:02;;;;;;;17.77;12.15;;;;;;;;;;5103802;28;20052;-62
2022/03/26 10:14:54;;;;;;;16.05;11.18;;;;;;;;;;5103852;28;20103;-62
2022/03/26 10:17:31;;;;;;;17.85;12.52;;;;;;;;;;5101747;28;20047;-62
2022/03/26 10:20:01;;;;;;;19.65;11.48;;;;;;;;;;5094767;28;20040;-62
2022/03/26 10:22:50;;;;;;;17.60;11.52;;;;;;;;;;5083548;28;20080;-61
2022/03/26 10:25:18;;;;;;;16.58;10.95;;;;;;;;;;5078562;28;20060;-61
2022/03/26 10:27:45;;;;;;;21.20;13.30;;;;;;;;;;5083596;28;20104;-61
2022/03/26 10:30:13;;;;;;;15.27;11.47;;;;;;;;;;5093025;28;20036;-61
2022/03/26 10:32:43;;;;;;;13.75;9.80;;;;;;;;;;5103746;28;20283;-61
2022/03/26 10:35:13;;;;;;;15.70;9.80;;;;;;;;;;5103889;28;20465;-61
2022/03/26 10:37:58;;;;;;;18.50;9.48;;;;;;;;;;5103415;28;20072;-61
2022/03/26 10:40:34;;;;;;;12.10;8.48;;;;;;;;;;5101574;28;20051;-61
2022/03/26 10:43:00;;;;;;;11.82;8.00;;;;;;;;;;5103981;28;20122;-61
2022/03/26 10:45:26;;;;;;;17.40;8.98;;;;;;;;;;5103618;28;20102;-61
2022/03/26 10:47:56;;;;;;;12.77;8.05;;;;;;;;;;5103734;28;20146;-61
2022/03/26 10:50:23;;;;;;;13.25;7.38;;;;;;;;;;5093014;28;20047;-61
2022/03/26 10:52:49;;;;;;;11.68;6.72;;;;;;;;;;5083100;28;20051;-62
2022/03/26 10:55:17;;;;;;;10.10;5.80;;;;;;;;;;5083275;28;20047;-60
2022/03/26 10:57:47;;;;;;;11.23;5.70;;;;;;;;;;5083673;28;20037;-61
2022/03/26 11:00:17;;;;;;;9.82;6.20;;;;;;;;;;5084164;28;20045;-61
2022/03/26 11:02:44;;;;;;;8.60;5.32;;;;;;;;;;5092076;28;20048;-61
2022/03/26 11:05:10;;;;;;;8.73;5.93;;;;;;;;;;5102284;28;20048;-61
2022/03/26 11:07:37;;;;;;;8.68;5.30;;;;;;;;;;5103124;28;20043;-61
2022/03/26 11:10:04;;;;;;;9.18;5.70;;;;;;;;;;5101725;28;20543;-61
2022/03/26 11:12:31;;;;;;;9.75;5.00;;;;;;;;;;5103706;28;20123;-63
2022/03/26 11:14:58;;;;;;;6.50;4.30;;;;;;;;;;5103281;28;20108;-61
2022/03/26 11:17:42;;;;;;;6.72;4.72;;;;;;;;;;5106571;28;20119;-61
2022/03/26 11:20:14;;;;;;;7.00;3.97;;;;;;;;;;5097301;28;20559;-61
2022/03/26 11:22:59;;;;;;;7.35;4.22;;;;;;;;;;5086030;28;20044;-61
2022/03/26 11:25:28;;;;;;;6.35;4.35;;;;;;;;;;5086966;28;20044;-61
2022/03/26 11:28:09;;;;;;;7.68;4.82;;;;;;;;;;5086734;28;20417;-61
2022/03/26 11:30:45;;;;;;;6.15;4.20;;;;;;;;;;5086189;28;20040;-60
2022/03/26 11:33:12;;;;;;;9.30;4.05;;;;;;;;;;5086725;28;20060;-61
2022/03/26 11:35:58;;;;;;;6.15;4.22;;;;;;;;;;5087016;28;20041;-61
2022/03/26 11:38:28;;;;;;;7.10;4.25;;;;;;;;;;5086513;28;20045;-61
2022/03/26 11:41:08;;;;;;;6.35;3.50;;;;;;;;;;5100062;28;20086;-61
2022/03/26 11:43:43;;;;;;;6.03;4.03;;;;;;;;;;5106507;28;20523;-61
2022/03/26 11:51:57;;;;;;;9.35;4.38;;;;;;;;;;5086219;28;20091;-61
2022/03/26 11:54:24;;;;;;;7.07;3.95;;;;;;;;;;5106545;28;20134;-63
2022/03/26 11:57:08;;;;;;;6.55;4.68;;;;;;;;;;5106149;28;20046;-62
2022/03/26 11:59:38;;;;;;;9.52;4.97;;;;;;;;;;5104897;28;20127;-62
2022/03/26 12:02:20;;;;;;;7.18;3.78;;;;;;;;;;5105613;28;20071;-61
2022/03/26 12:04:50;;;;;;;6.43;3.42;;;;;;;;;;5106355;28;20063;-62
2022/03/26 12:07:17;;;;;;;7.47;4.25;;;;;;;;;;5104681;28;20400;-62
2022/03/26 12:09:43;;;;;;;10.25;4.63;;;;;;;;;;5103353;28;20044;-61
2022/03/26 12:12:14;;;;;;;7.22;4.05;;;;;;;;;;5085836;28;20037;-62
2022/03/26 12:14:59;;;;;;;6.32;4.72;;;;;;;;;;5085863;28;20096;-62
2022/03/26 12:17:44;;;;;;;8.75;4.65;;;;;;;;;;5085760;28;20075;-62
2022/03/26 12:20:19;;;;;;;8.07;4.07;;;;;;;;;;5087049;28;20561;-62
2022/03/26 12:22:48;;;;;;;6.50;4.55;;;;;;;;;;5085207;28;20040;-62
2022/03/26 12:25:16;;;;;;;6.43;3.90;;;;;;;;;;5085597;28;20076;-62
2022/03/26 12:27:46;;;;;;;7.20;4.18;;;;;;;;;;5084531;28;20044;-62
2022/03/26 12:30:14;;;;;;;10.10;4.38;;;;;;;;;;5097875;28;20055;-62
2022/03/26 12:32:40;;;;;;;7.72;4.38;;;;;;;;;;5105683;28;20044;-61
2022/03/26 12:35:09;;;;;;;15.27;5.10;;;;;;;;;;5106104;28;20562;-62
2022/03/26 12:37:35;;;;;;;6.35;4.38;;;;;;;;;;5105189;28;20040;-61
2022/03/26 12:40:02;;;;;;;7.50;4.10;;;;;;;;;;5103313;28;20046;-62
2022/03/26 12:42:28;;;;;;;7.53;4.68;;;;;;;;;;5105446;28;20036;-62
2022/03/26 12:44:54;;;;;;;6.50;4.35;;;;;;;;;;5105530;28;20047;-62
2022/03/26 12:47:23;;;;;;;11.20;4.70;;;;;;;;;;5105110;28;20087;-61
2022/03/26 12:49:50;;;;;;;11.32;5.07;;;;;;;;;;5096745;28;20044;-61
2022/03/26 12:52:19;;;;;;;10.00;4.65;;;;;;;;;;5084612;28;20049;-62
2022/03/26 12:54:55;;;;;;;8.05;4.82;;;;;;;;;;5085064;28;20117;-62
2022/03/26 12:57:21;;;;;;;6.18;4.25;;;;;;;;;;5087704;28;20054;-61
2022/03/26 12:59:54;;;;;;;8.40;4.18;;;;;;;;;;5105467;28;20097;-61
2022/03/26 13:02:20;;;;;;;7.38;3.45;;;;;;;;;;5104900;28;20087;-62
2022/03/26 13:04:53;;;;;;;7.95;4.38;;;;;;;;;;5105416;28;20146;-62
2022/03/26 13:07:20;;;;;;;7.38;4.20;;;;;;;;;;5103898;28;20052;-62
2022/03/26 13:09:46;;;;;;;6.32;3.70;;;;;;;;;;5105187;28;20470;-62
2022/03/26 13:12:25;;;;;;;5.22;3.17;;;;;;;;;;5105098;28;20048;-62
2022/03/26 13:14:51;;;;;;;6.65;3.08;;;;;;;;;;5104917;28;20101;-62
2022/03/26 13:17:19;;;;;;;5.80;3.67;;;;;;;;;;5103062;28;20044;-62
2022/03/26 13:19:45;;;;;;;8.60;3.58;;;;;;;;;;5084486;28;20045;-62
2022/03/26 13:22:15;;;;;;;7.53;3.10;;;;;;;;;;5084331;28;20123;-61
2022/03/26 13:24:51;;;;;;;6.70;2.75;;;;;;;;;;5084448;28;20041;-62
2022/03/26 13:27:18;;;;;;;6.15;3.05;;;;;;;;;;5085171;28;20423;-62
2022/03/26 13:29:44;;;;;;;5.45;3.33;;;;;;;;;;5084486;28;20041;-62
2022/03/26 13:32:10;;;;;;;4.75;2.90;;;;;;;;;;5089698;28;20048;-62
2022/03/26 13:34:38;;;;;;;6.68;3.47;;;;;;;;;;5104763;28;20076;-63
2022/03/26 13:37:07;;;;;;;4.10;2.58;;;;;;;;;;5104568;28;20044;-63
2022/03/26 13:39:34;;;;;;;5.22;2.97;;;;;;;;;;5084370;28;20412;-62
2022/03/26 13:42:10;;;;;;;4.43;3.10;;;;;;;;;;5084334;28;20478;-64
2022/03/26 13:44:37;;;;;;;5.22;2.35;;;;;;;;;;5084219;28;20812;-62
2022/03/26 13:47:04;;;;;;;5.82;2.67;;;;;;;;;;5083850;28;20048;-61
2022/03/26 13:49:31;;;;;;;4.03;2.78;;;;;;;;;;5102196;28;20044;-63
2022/03/26 13:51:58;;;;;;;4.50;2.78;;;;;;;;;;5103947;28;20047;-62
2022/03/26 13:54:28;;;;;;;6.55;2.55;;;;;;;;;;5104751;28;20055;-62
2022/03/26 13:56:57;;;;;;;6.15;3.10;;;;;;;;;;5104197;28;20043;-63
2022/03/26 13:59:25;;;;;;;6.60;3.80;;;;;;;;;;5086161;28;20047;-62
2022/03/26 14:01:52;;;;;;;6.00;3.08;;;;;;;;;;5083680;28;20479;-62
2022/03/26 14:04:25;;;;;;;5.43;3.15;;;;;;;;;;5084147;28;20060;-63
2022/03/26 14:06:52;;;;;;;5.22;2.80;;;;;;;;;;5093365;28;20044;-62
2022/03/26 14:09:19;;;;;;;4.05;2.72;;;;;;;;;;5104598;28;20108;-62
2022/03/26 14:11:45;;;;;;;5.10;3.10;;;;;;;;;;5104440;28;20067;-62
2022/03/26 14:14:11;;;;;;;6.15;3.40;;;;;;;;;;5103912;28;20044;-61
2022/03/26 14:16:37;;;;;;;4.00;2.83;;;;;;;;;;5095249;28;20044;-61
2022/03/26 14:19:03;;;;;;;6.97;3.30;;;;;;;;;;5083917;28;20056;-66
2022/03/26 14:21:29;;;;;;;5.90;3.22;;;;;;;;;;5089548;28;20043;-62